Time;durP1;ratioP1;P1;durP2;ratioP2;P2;SDS_P1;SDS_P2;PMS_P1;PMS_P2;Temp;Humidity;BMP_temperature;BMP_pressure;BME280_temperature;BME280_humidity;BME280_pressure;Samples;Min_cycle;Max_cycle;Signal;HPM_P1;HPM_P2
2021/03/09 00:00:55;;;;;;;;;;;4.70;97.20;;;;;;4947601;28;19961;-69
2021/03/09 00:03:23;;;;;;;;;;;4.70;96.80;;;;;;4948693;29;19918;-69
2021/03/09 00:05:49;;;;;;;;;;;4.70;98.50;;;;;;4948095;29;19965;-69
2021/03/09 00:08:14;;;;;;;;;;;4.60;98.90;;;;;;4949120;29;20602;-69
2021/03/09 00:10:40;;;;;;;;;;;4.60;97.20;;;;;;4948709;29;19910;-69
2021/03/09 00:13:05;;;;;;;;;;;4.60;96.70;;;;;;4945832;29;19918;-69
2021/03/09 00:15:31;;;;;;;;;;;4.60;97.70;;;;;;4963189;28;20327;-69
2021/03/09 00:17:57;;;;;;;;;;;4.60;96.40;;;;;;4947119;29;19914;-70
2021/03/09 00:20:22;;;;;;;;;;;4.60;96.60;;;;;;4950671;28;20356;-69
2021/03/09 00:22:48;;;;;;;;;;;4.60;96.60;;;;;;4949800;29;20025;-69
2021/03/09 00:25:16;;;;;;;;;;;4.60;96.40;;;;;;4946789;29;20343;-69
2021/03/09 00:27:46;;;;;;;;;;;4.60;96.50;;;;;;4960478;28;19921;-69
2021/03/09 00:30:12;;;;;;;;;;;4.60;95.90;;;;;;4948975;29;19926;-69
2021/03/09 00:32:37;;;;;;;;;;;4.60;97.50;;;;;;4944673;28;19910;-69
2021/03/09 00:35:05;;;;;;;;;;;4.60;96.60;;;;;;4962351;28;19933;-69
2021/03/09 00:37:31;;;;;;;;;;;4.60;96.50;;;;;;4948468;29;20250;-69
2021/03/09 00:39:56;;;;;;;;;;;4.60;96.30;;;;;;4949795;28;19925;-69
2021/03/09 00:42:22;;;;;;;;;;;4.60;96.10;;;;;;4947643;28;19921;-69
2021/03/09 00:44:47;;;;;;;;;;;4.60;96.60;;;;;;4964898;28;19930;-69
2021/03/09 00:47:13;;;;;;;;;;;4.60;96.90;;;;;;4948634;29;19910;-69
2021/03/09 00:49:41;;;;;;;;;;;4.60;97.10;;;;;;4949586;29;19997;-69
2021/03/09 00:52:09;;;;;;;;;;;4.60;97.10;;;;;;4949228;29;19914;-69
2021/03/09 00:54:34;;;;;;;;;;;4.60;97.50;;;;;;4948521;29;19919;-69
2021/03/09 00:57:00;;;;;;;;;;;4.60;96.90;;;;;;4948848;29;19914;-69
2021/03/09 00:59:25;;;;;;;;;;;4.60;96.80;;;;;;4949507;28;20138;-69
2021/03/09 01:01:51;;;;;;;;;;;4.60;96.80;;;;;;4949562;28;20009;-69
2021/03/09 01:04:16;;;;;;;;;;;4.60;96.90;;;;;;4946701;28;20344;-69
2021/03/09 01:06:42;;;;;;;;;;;4.50;98.60;;;;;;4948631;29;21680;-69
2021/03/09 01:09:07;;;;;;;;;;;4.50;97.80;;;;;;4948640;28;20325;-69
2021/03/09 01:11:33;;;;;;;;;;;4.50;97.00;;;;;;4949578;28;20067;-69
2021/03/09 01:13:58;;;;;;;;;;;4.50;97.30;;;;;;4948493;29;20233;-69
2021/03/09 01:16:24;;;;;;;;;;;4.50;97.60;;;;;;4946511;29;20072;-69
2021/03/09 01:18:54;;;;;;;;;;;4.40;98.20;;;;;;4947376;28;19919;-69
2021/03/09 01:21:20;;;;;;;;;;;4.40;98.30;;;;;;4949100;29;20402;-69
2021/03/09 01:23:45;;;;;;;;;;;4.40;98.20;;;;;;4949727;28;19922;-69
2021/03/09 01:26:11;;;;;;;;;;;4.40;98.10;;;;;;4947410;29;19961;-69
2021/03/09 01:28:39;;;;;;;;;;;4.40;97.70;;;;;;4948407;29;19910;-69
2021/03/09 01:31:04;;;;;;;;;;;4.40;98.60;;;;;;4947735;28;19961;-69
2021/03/09 01:33:30;;;;;;;;;;;4.40;98.50;;;;;;4948135;29;19942;-69
2021/03/09 01:35:55;;;;;;;;;;;4.40;97.90;;;;;;4947063;29;20436;-69
2021/03/09 01:38:21;;;;;;;;;;;4.40;98.30;;;;;;4949026;28;20332;-69
2021/03/09 01:40:46;;;;;;;;;;;4.40;98.80;;;;;;4950985;29;20340;-69
2021/03/09 01:43:14;;;;;;;;;;;4.40;98.80;;;;;;4950174;29;20384;-69
2021/03/09 01:45:42;;;;;;;;;;;4.40;98.60;;;;;;4931181;29;19972;-69
2021/03/09 01:48:08;;;;;;;;;;;4.30;99.40;;;;;;4947203;29;20379;-69
2021/03/09 01:50:36;;;;;;;;;;;4.30;99.00;;;;;;4928000;29;19914;-69
2021/03/09 01:53:05;;;;;;;;;;;4.30;98.40;;;;;;4944486;29;19961;-69
2021/03/09 01:55:31;;;;;;;;;;;4.30;98.70;;;;;;4943868;29;20360;-69
2021/03/09 01:57:57;;;;;;;;;;;4.30;98.90;;;;;;4946411;29;19950;-69
2021/03/09 02:00:25;;;;;;;;;;;4.30;99.60;;;;;;4961987;28;19922;-69
2021/03/09 02:02:52;;;;;;;;;;;4.30;98.50;;;;;;4946216;28;19914;-69
2021/03/09 02:05:18;;;;;;;;;;;4.20;99.10;;;;;;4965649;28;19910;-69
2021/03/09 02:07:43;;;;;;;;;;;4.20;98.50;;;;;;4946856;29;20261;-69
2021/03/09 02:10:10;;;;;;;;;;;4.20;98.10;;;;;;4943273;28;19997;-69
2021/03/09 02:12:45;;;;;;;;;;;4.30;97.80;;;;;;4943764;29;19950;-69
2021/03/09 02:15:14;;;;;;;;;;;4.20;99.00;;;;;;4944997;28;19914;-69
2021/03/09 02:18:12;;;;;;;;;;;4.20;99.90;;;;;;4960118;28;20375;-69
2021/03/09 02:20:50;;;;;;;;;;;4.30;99.50;;;;;;4935722;29;19949;-69
2021/03/09 02:23:24;;;;;;;;;;;4.20;99.30;;;;;;4948333;29;19911;-69
2021/03/09 02:26:08;;;;;;;;;;;4.20;99.30;;;;;;4960851;28;20018;-69
2021/03/09 02:28:37;;;;;;;;;;;4.20;98.30;;;;;;4940387;29;19918;-69
2021/03/09 02:31:02;;;;;;;;;;;4.20;98.70;;;;;;4946954;29;19966;-69
2021/03/09 02:33:54;;;;;;;;;;;4.20;99.30;;;;;;4942859;29;19958;-69
2021/03/09 02:36:22;;;;;;;;;;;4.20;99.20;;;;;;4942202;29;19921;-69
2021/03/09 02:38:54;;;;;;;;;;;4.20;98.90;;;;;;4944240;29;19921;-69
2021/03/09 02:41:20;;;;;;;;;;;4.20;98.50;;;;;;4948062;29;19910;-69
2021/03/09 02:43:46;;;;;;;;;;;4.20;98.50;;;;;;4961861;28;19918;-69
2021/03/09 02:46:13;;;;;;;;;;;4.20;99.10;;;;;;4952335;29;19980;-69
2021/03/09 02:48:38;;;;;;;;;;;4.10;98.00;;;;;;4947571;28;19910;-69
2021/03/09 02:51:04;;;;;;;;;;;4.10;98.70;;;;;;4948734;29;19922;-69
2021/03/09 02:53:31;;;;;;;;;;;4.10;98.00;;;;;;4952852;29;20466;-69
2021/03/09 02:55:56;;;;;;;;;;;4.10;98.70;;;;;;4946553;29;19976;-69
2021/03/09 02:58:22;;;;;;;;;;;4.10;98.00;;;;;;4951605;29;20004;-69
2021/03/09 03:00:51;;;;;;;;;;;4.00;98.70;;;;;;4968729;28;19915;-69
2021/03/09 03:03:17;;;;;;;;;;;4.00;98.40;;;;;;4958171;28;19910;-69
2021/03/09 03:05:42;;;;;;;;;;;4.00;98.80;;;;;;4950851;29;19918;-69
2021/03/09 03:08:11;;;;;;;;;;;3.90;98.30;;;;;;4949620;29;19911;-69
2021/03/09 03:10:37;;;;;;;;;;;3.90;98.10;;;;;;4948780;29;19918;-69
2021/03/09 03:13:03;;;;;;;;;;;3.90;98.50;;;;;;4949823;29;20371;-69
2021/03/09 03:15:28;;;;;;;;;;;3.90;97.90;;;;;;4950232;29;19924;-69
2021/03/09 03:17:54;;;;;;;;;;;3.90;97.80;;;;;;4944605;29;19914;-69
2021/03/09 03:20:20;;;;;;;;;;;3.80;97.10;;;;;;4964782;28;19921;-69
2021/03/09 03:22:45;;;;;;;;;;;3.80;97.50;;;;;;4950104;29;19915;-69
2021/03/09 03:25:12;;;;;;;;;;;3.80;97.50;;;;;;4948349;29;19910;-69
2021/03/09 03:27:40;;;;;;;;;;;3.70;98.50;;;;;;4949201;29;19940;-69
2021/03/09 03:30:12;;;;;;;;;;;3.70;99.50;;;;;;4948550;29;19949;-69
2021/03/09 03:32:37;;;;;;;;;;;3.70;98.50;;;;;;4964905;28;19911;-69
2021/03/09 03:35:04;;;;;;;;;;;3.60;98.10;;;;;;4950765;29;19998;-69
2021/03/09 03:37:32;;;;;;;;;;;3.60;98.70;;;;;;4949892;29;19918;-69
2021/03/09 03:39:58;;;;;;;;;;;3.60;98.20;;;;;;4950524;29;19914;-69
2021/03/09 03:42:26;;;;;;;;;;;3.60;98.20;;;;;;4967491;28;20396;-69
2021/03/09 03:44:51;;;;;;;;;;;3.60;98.50;;;;;;4949954;29;19966;-69
2021/03/09 03:47:19;;;;;;;;;;;3.60;98.50;;;;;;4964276;28;20367;-69
2021/03/09 03:49:45;;;;;;;;;;;3.60;97.80;;;;;;4948531;29;19938;-69
2021/03/09 03:52:29;;;;;;;;;;;3.50;99.30;;;;;;4964195;28;20287;-69
2021/03/09 03:54:58;;;;;;;;;;;3.50;98.40;;;;;;4947351;28;20504;-69
2021/03/09 03:57:30;;;;;;;;;;;3.50;98.30;;;;;;4949247;28;19911;-69
2021/03/09 03:59:56;;;;;;;;;;;3.50;98.50;;;;;;4950906;29;19914;-69
2021/03/09 04:02:22;;;;;;;;;;;3.50;98.50;;;;;;4951578;29;20419;-69
2021/03/09 04:04:49;;;;;;;;;;;3.50;98.10;;;;;;4964260;28;20038;-69
2021/03/09 04:07:16;;;;;;;;;;;3.50;98.10;;;;;;4968255;28;20368;-69
2021/03/09 04:09:44;;;;;;;;;;;3.50;98.40;;;;;;4965251;28;19930;-69
2021/03/09 04:12:09;;;;;;;;;;;3.40;98.00;;;;;;4948001;29;19918;-69
2021/03/09 04:14:37;;;;;;;;;;;3.40;99.00;;;;;;4947534;28;20002;-69
2021/03/09 04:17:03;;;;;;;;;;;3.40;98.60;;;;;;4950679;29;20404;-69
2021/03/09 04:19:30;;;;;;;;;;;3.40;98.20;;;;;;4948716;29;19914;-69
2021/03/09 04:21:58;;;;;;;;;;;3.40;98.70;;;;;;4945974;29;19990;-69
2021/03/09 04:24:25;;;;;;;;;;;3.40;98.30;;;;;;4946933;28;20009;-69
2021/03/09 04:26:50;;;;;;;;;;;3.30;98.70;;;;;;4934420;29;19917;-69
2021/03/09 04:29:16;;;;;;;;;;;3.30;98.20;;;;;;4963220;28;19914;-69
2021/03/09 04:31:43;;;;;;;;;;;3.30;97.80;;;;;;4950439;28;19929;-69
2021/03/09 04:34:09;;;;;;;;;;;3.30;97.80;;;;;;4949345;29;19919;-69
2021/03/09 04:36:35;;;;;;;;;;;3.30;97.60;;;;;;4946619;29;20452;-69
2021/03/09 04:39:00;;;;;;;;;;;3.30;98.60;;;;;;4947969;29;20335;-69
2021/03/09 04:41:26;;;;;;;;;;;3.20;99.70;;;;;;4948437;29;19918;-69
2021/03/09 04:43:51;;;;;;;;;;;3.20;99.80;;;;;;4965270;28;19958;-69
2021/03/09 04:46:17;;;;;;;;;;;3.20;99.90;;;;;;4947816;29;19914;-69
2021/03/09 04:48:42;;;;;;;;;;;3.20;99.90;;;;;;4947101;28;19914;-69
2021/03/09 04:51:11;;;;;;;;;;;3.10;99.90;;;;;;4946230;29;20480;-69
2021/03/09 04:53:42;;;;;;;;;;;3.10;99.90;;;;;;4947220;28;19997;-69
2021/03/09 04:56:08;;;;;;;;;;;3.10;99.90;;;;;;4949092;28;20006;-69
2021/03/09 04:58:33;;;;;;;;;;;3.10;99.90;;;;;;4947420;29;20006;-69
2021/03/09 05:01:01;;;;;;;;;;;3.10;99.80;;;;;;4948086;29;19982;-69
2021/03/09 05:03:27;;;;;;;;;;;3.10;99.90;;;;;;4946221;29;19929;-69
2021/03/09 05:05:57;;;;;;;;;;;3.10;99.90;;;;;;4949282;28;19918;-69
2021/03/09 05:08:25;;;;;;;;;;;3.10;99.80;;;;;;4947422;29;19918;-69
2021/03/09 05:10:51;;;;;;;;;;;3.00;99.90;;;;;;4946656;29;20340;-69
2021/03/09 05:13:17;;;;;;;;;;;3.00;99.90;;;;;;4949806;28;19980;-69
2021/03/09 05:15:45;;;;;;;;;;;3.00;99.90;;;;;;4945931;29;20348;-69
2021/03/09 05:18:10;;;;;;;;;;;3.00;99.90;;;;;;4946770;28;20335;-69
2021/03/09 05:20:39;;;;;;;;;;;3.00;99.90;;;;;;4944926;29;20013;-69
2021/03/09 05:23:05;;;;;;;;;;;3.00;99.30;;;;;;4944799;29;19962;-69
2021/03/09 05:25:30;;;;;;;;;;;3.00;99.70;;;;;;4945515;29;19938;-69
2021/03/09 05:27:56;;;;;;;;;;;3.00;98.70;;;;;;4945112;29;19918;-69
2021/03/09 05:30:21;;;;;;;;;;;3.00;99.20;;;;;;4948335;29;19933;-70
2021/03/09 05:32:47;;;;;;;;;;;3.00;99.90;;;;;;4947780;29;19969;-69
2021/03/09 05:35:13;;;;;;;;;;;3.00;99.60;;;;;;4949694;29;19973;-69
2021/03/09 05:37:39;;;;;;;;;;;3.00;98.70;;;;;;4947854;28;19911;-69
2021/03/09 05:40:05;;;;;;;;;;;3.00;99.20;;;;;;4947519;28;20361;-69
2021/03/09 05:42:30;;;;;;;;;;;3.00;99.90;;;;;;4945112;29;19970;-69
2021/03/09 05:45:01;;;;;;;;;;;3.00;99.60;;;;;;4963411;28;19950;-69
2021/03/09 05:47:27;;;;;;;;;;;3.00;99.30;;;;;;4945130;29;19921;-70
2021/03/09 05:49:58;;;;;;;;;;;3.00;99.00;;;;;;4945806;29;20268;-69
2021/03/09 05:52:23;;;;;;;;;;;3.00;98.70;;;;;;4946754;28;20004;-69
2021/03/09 05:54:49;;;;;;;;;;;3.00;98.50;;;;;;4948313;29;20101;-69
2021/03/09 05:57:17;;;;;;;;;;;3.00;99.90;;;;;;4945293;28;20252;-69
2021/03/09 05:59:45;;;;;;;;;;;3.00;99.40;;;;;;4945749;29;19964;-69
2021/03/09 06:02:13;;;;;;;;;;;3.00;99.90;;;;;;4944724;29;19984;-69
2021/03/09 06:04:39;;;;;;;;;;;3.00;99.90;;;;;;4944593;29;19918;-69
2021/03/09 06:07:04;;;;;;;;;;;2.90;99.90;;;;;;4945109;29;19921;-69
2021/03/09 06:09:33;;;;;;;;;;;2.90;99.90;;;;;;4945366;28;19914;-69
2021/03/09 06:12:20;;;;;;;;;;;2.90;99.90;;;;;;4944812;28;20396;-69
2021/03/09 06:14:51;;;;;;;;;;;2.90;99.90;;;;;;4942781;29;19933;-69
2021/03/09 06:17:22;;;;;;;;;;;2.80;99.90;;;;;;4944908;28;19914;-69
2021/03/09 06:19:48;;;;;;;;;;;2.90;99.90;;;;;;4965627;28;19911;-69
2021/03/09 06:22:14;;;;;;;;;;;2.90;99.90;;;;;;4953255;28;19921;-69
2021/03/09 06:24:40;;;;;;;;;;;2.80;99.90;;;;;;4952300;28;19910;-69
2021/03/09 06:27:24;;;;;;;;;;;2.90;99.90;;;;;;4954487;29;19918;-69
2021/03/09 06:29:50;;;;;;;;;;;2.90;99.90;;;;;;4954683;28;19922;-69
2021/03/09 06:32:15;;;;;;;;;;;2.90;99.90;;;;;;4950079;28;19949;-69
2021/03/09 06:34:41;;;;;;;;;;;2.90;99.90;;;;;;4954386;29;20340;-69
2021/03/09 06:37:07;;;;;;;;;;;2.90;99.90;;;;;;4953132;29;19930;-69
2021/03/09 06:39:49;;;;;;;;;;;2.90;99.90;;;;;;4951207;28;19914;-69
2021/03/09 06:42:16;;;;;;;;;;;3.00;99.90;;;;;;4952190;29;19914;-69
2021/03/09 06:44:41;;;;;;;;;;;3.00;99.90;;;;;;4951108;29;20383;-68
2021/03/09 06:47:07;;;;;;;;;;;3.00;99.90;;;;;;4950401;28;20018;-69
2021/03/09 06:49:54;;;;;;;;;;;3.00;99.90;;;;;;4950831;29;19924;-69
2021/03/09 06:52:20;;;;;;;;;;;3.00;99.90;;;;;;4952042;29;20352;-69
2021/03/09 06:54:46;;;;;;;;;;;3.10;99.90;;;;;;4938249;29;19934;-69
2021/03/09 06:57:12;;;;;;;;;;;3.10;99.90;;;;;;4953589;28;19918;-69
2021/03/09 06:59:40;;;;;;;;;;;3.10;99.90;;;;;;4953183;28;20005;-69
2021/03/09 07:02:12;;;;;;;;;;;3.10;99.90;;;;;;4950384;28;19973;-69
2021/03/09 07:05:00;;;;;;;;;;;3.20;99.90;;;;;;4953571;28;19921;-69
2021/03/09 07:07:31;;;;;;;;;;;3.20;99.90;;;;;;4943029;28;19949;-69
2021/03/09 07:09:57;;;;;;;;;;;3.20;99.90;;;;;;4949105;29;19942;-69
2021/03/09 07:12:25;;;;;;;;;;;3.20;99.90;;;;;;4954974;28;19915;-69
2021/03/09 07:14:51;;;;;;;;;;;3.20;99.90;;;;;;4953350;29;19922;-69
2021/03/09 07:17:18;;;;;;;;;;;3.30;99.90;;;;;;4951287;29;20390;-69
2021/03/09 07:19:47;;;;;;;;;;;3.30;99.90;;;;;;4930494;29;20018;-69
2021/03/09 07:22:13;;;;;;;;;;;3.30;99.90;;;;;;4950140;28;19921;-69
2021/03/09 07:24:39;;;;;;;;;;;3.30;99.90;;;;;;4948882;28;19917;-69
2021/03/09 07:27:14;;;;;;;;;;;3.30;99.90;;;;;;4934562;29;19985;-69
2021/03/09 07:29:43;;;;;;;;;;;3.40;99.90;;;;;;4946194;28;19911;-69
2021/03/09 07:32:09;;;;;;;;;;;3.40;99.90;;;;;;4947969;29;19926;-69
2021/03/09 07:34:34;;;;;;;;;;;3.40;99.90;;;;;;4946264;29;19918;-69
2021/03/09 07:37:00;;;;;;;;;;;3.50;99.90;;;;;;4950018;29;19950;-69
2021/03/09 07:39:25;;;;;;;;;;;3.50;99.90;;;;;;4948265;29;19975;-69
2021/03/09 07:41:51;;;;;;;;;;;3.60;99.90;;;;;;4943936;28;20376;-70
2021/03/09 07:44:17;;;;;;;;;;;3.60;99.90;;;;;;4946910;29;19919;-70
2021/03/09 07:46:44;;;;;;;;;;;3.70;99.90;;;;;;4945531;29;20362;-68
2021/03/09 07:49:10;;;;;;;;;;;3.80;99.90;;;;;;4948237;29;20804;-69
2021/03/09 07:51:53;;;;;;;;;;;3.80;99.90;;;;;;4945032;28;19992;-69
2021/03/09 07:54:19;;;;;;;;;;;3.90;99.90;;;;;;4962139;28;19917;-69
2021/03/09 07:57:03;;;;;;;;;;;3.90;99.90;;;;;;4943494;29;20263;-69
2021/03/09 07:59:29;;;;;;;;;;;4.00;99.90;;;;;;4962423;28;19914;-69
2021/03/09 08:01:57;;;;;;;;;;;4.00;99.90;;;;;;4944688;29;19925;-69
2021/03/09 08:04:24;;;;;;;;;;;4.00;99.90;;;;;;4947757;29;19915;-69
2021/03/09 08:06:50;;;;;;;;;;;4.10;99.90;;;;;;4960571;28;19952;-69
2021/03/09 08:09:35;;;;;;;;;;;4.10;99.90;;;;;;4946996;29;19927;-69
2021/03/09 08:12:00;;;;;;;;;;;4.20;99.90;;;;;;4946488;29;20364;-69
2021/03/09 08:14:26;;;;;;;;;;;4.30;99.90;;;;;;4948293;29;19974;-69
2021/03/09 08:16:54;;;;;;;;;;;4.30;99.90;;;;;;4946538;28;19911;-69
2021/03/09 08:19:40;;;;;;;;;;;4.40;99.90;;;;;;4947775;29;20377;-69
2021/03/09 08:22:07;;;;;;;;;;;4.40;99.90;;;;;;4962893;28;20005;-69
2021/03/09 08:24:38;;;;;;;;;;;4.40;99.90;;;;;;4948073;28;19918;-70
2021/03/09 08:27:04;;;;;;;;;;;4.50;99.90;;;;;;4944945;29;19953;-70
2021/03/09 08:29:31;;;;;;;;;;;4.50;99.90;;;;;;4947739;29;19984;-69
2021/03/09 08:32:16;;;;;;;;;;;4.50;99.90;;;;;;4946024;28;20554;-70
2021/03/09 08:34:41;;;;;;;;;;;4.50;99.90;;;;;;4946526;29;19942;-69
2021/03/09 08:37:27;;;;;;;;;;;4.60;99.90;;;;;;4946460;29;19915;-69
2021/03/09 08:40:03;;;;;;;;;;;4.60;99.90;;;;;;4944245;29;19911;-69
2021/03/09 08:42:31;;;;;;;;;;;4.70;99.90;;;;;;4945291;28;19970;-69
2021/03/09 08:45:16;;;;;;;;;;;4.70;99.90;;;;;;4942361;28;19984;-69
2021/03/09 08:47:56;;;;;;;;;;;4.80;99.90;;;;;;4945903;28;20357;-69
2021/03/09 08:50:45;;;;;;;;;;;4.80;99.90;;;;;;4927094;29;19918;-69
2021/03/09 08:53:30;;;;;;;;;;;4.90;99.90;;;;;;4946628;29;19910;-69
2021/03/09 08:56:03;;;;;;;;;;;4.90;99.90;;;;;;4947610;28;19919;-69
2021/03/09 08:58:32;;;;;;;;;;;5.00;99.90;;;;;;4943374;29;19925;-69
2021/03/09 09:01:00;;;;;;;;;;;5.10;99.90;;;;;;4927161;29;19950;-69
2021/03/09 09:03:37;;;;;;;;;;;5.20;99.90;;;;;;4946133;28;20043;-69
2021/03/09 09:06:03;;;;;;;;;;;5.30;99.90;;;;;;4943914;29;20344;-69
2021/03/09 09:08:29;;;;;;;;;;;5.30;99.90;;;;;;4945243;28;20021;-69
2021/03/09 09:10:54;;;;;;;;;;;5.40;99.90;;;;;;4944559;29;19937;-69
2021/03/09 09:13:29;;;;;;;;;;;5.40;99.90;;;;;;4945321;28;19921;-69
2021/03/09 09:15:55;;;;;;;;;;;5.50;99.70;;;;;;4945889;29;19918;-69
2021/03/09 09:18:20;;;;;;;;;;;5.60;99.90;;;;;;4945904;28;19910;-69
2021/03/09 09:20:47;;;;;;;;;;;5.60;99.90;;;;;;4944845;28;19915;-69
2021/03/09 09:23:28;;;;;;;;;;;5.70;98.00;;;;;;4946756;28;20433;-69
2021/03/09 09:25:57;;;;;;;;;;;5.80;97.40;;;;;;4944384;29;19914;-69
2021/03/09 09:28:30;;;;;;;;;;;5.80;98.50;;;;;;4944986;29;20462;-69
2021/03/09 09:30:56;;;;;;;;;;;5.90;97.90;;;;;;4958590;28;19923;-69
2021/03/09 09:33:22;;;;;;;;;;;6.00;99.90;;;;;;4944467;28;19945;-69
2021/03/09 09:35:50;;;;;;;;;;;6.00;97.90;;;;;;4943569;29;20448;-69
2021/03/09 09:38:16;;;;;;;;;;;6.10;99.50;;;;;;4943480;29;20472;-69
2021/03/09 09:40:44;;;;;;;;;;;6.10;98.60;;;;;;4945936;29;19910;-69
2021/03/09 09:43:09;;;;;;;;;;;6.10;98.30;;;;;;4943027;28;19914;-69
2021/03/09 09:45:41;;;;;;;;;;;6.10;98.00;;;;;;4943600;29;19933;-70
2021/03/09 09:48:23;;;;;;;;;;;6.10;96.80;;;;;;4957024;28;19919;-69
2021/03/09 09:50:48;;;;;;;;;;;6.10;95.60;;;;;;4945567;29;20491;-70
2021/03/09 09:53:33;;;;;;;;;;;6.10;96.60;;;;;;4944117;29;19969;-69
2021/03/09 09:55:59;;;;;;;;;;;6.10;98.50;;;;;;4943864;29;19922;-70
2021/03/09 09:58:42;;;;;;;;;;;6.10;99.90;;;;;;4960330;28;20403;-69
2021/03/09 10:01:08;;;;;;;;;;;6.20;99.50;;;;;;4946245;29;19918;-69
2021/03/09 10:03:34;;;;;;;;;;;6.20;98.30;;;;;;4948439;29;20100;-69
2021/03/09 10:06:20;;;;;;;;;;;6.20;97.50;;;;;;4947169;28;19928;-69
2021/03/09 10:08:45;;;;;;;;;;;6.10;97.10;;;;;;4945580;28;19910;-69
2021/03/09 10:11:11;;;;;;;;;;;6.10;97.40;;;;;;4945936;29;20025;-69
2021/03/09 10:13:37;;;;;;;;;;;6.10;99.30;;;;;;4943211;28;19919;-69
2021/03/09 10:16:06;;;;;;;;;;;6.10;98.00;;;;;;4945975;28;20401;-69
2021/03/09 10:18:32;;;;;;;;;;;6.10;96.80;;;;;;4948056;28;19914;-69
2021/03/09 10:20:59;;;;;;;;;;;6.10;97.30;;;;;;4945447;29;20012;-69
2021/03/09 10:23:27;;;;;;;;;;;6.00;95.50;;;;;;4943138;29;19914;-69
2021/03/09 10:26:03;;;;;;;;;;;6.00;97.00;;;;;;4945381;29;19921;-70
2021/03/09 10:28:33;;;;;;;;;;;6.00;96.80;;;;;;4604212;28;10000620;-69
2021/03/09 10:30:58;;;;;;;;;;;6.00;98.30;;;;;;4941865;28;19926;-71
2021/03/09 10:33:24;;;;;;;;;;;6.10;99.90;;;;;;4957196;28;19921;-69
2021/03/09 10:36:10;;;;;;;;;;;6.10;99.40;;;;;;4942074;29;19949;-69
2021/03/09 10:38:36;;;;;;;;;;;6.00;97.10;;;;;;4944026;29;20363;-69
2021/03/09 10:41:04;;;;;;;;;;;6.10;98.30;;;;;;4943243;29;19927;-70
2021/03/09 10:43:42;;;;;;;;;;;6.10;96.80;;;;;;4939155;29;19919;-69
2021/03/09 10:46:08;;;;;;;;;;;6.10;97.60;;;;;;4945112;28;19924;-69
2021/03/09 10:48:39;;;;;;;;;;;6.10;98.30;;;;;;4959269;28;19914;-69
2021/03/09 10:51:34;;;;;;;;;;;6.10;97.60;;;;;;4962710;28;19910;-69
2021/03/09 10:54:02;;;;;;;;;;;6.10;97.20;;;;;;4941463;29;19918;-69
2021/03/09 10:56:29;;;;;;;;;;;6.20;98.10;;;;;;4945093;29;19945;-70
2021/03/09 10:58:57;;;;;;;;;;;6.20;97.40;;;;;;4940774;29;19934;-69
2021/03/09 11:01:22;;;;;;;;;;;6.20;98.50;;;;;;4943410;29;19914;-69
2021/03/09 11:03:48;;;;;;;;;;;6.20;99.10;;;;;;4944469;28;19926;-69
2021/03/09 11:06:13;;;;;;;;;;;6.20;97.00;;;;;;4944286;29;19921;-69
2021/03/09 11:08:39;;;;;;;;;;;6.20;97.70;;;;;;4945695;29;19914;-69
2021/03/09 11:11:04;;;;;;;;;;;6.20;99.90;;;;;;4948374;29;19993;-69
2021/03/09 11:13:32;;;;;;;;;;;6.30;99.90;;;;;;4947800;29;19921;-69
2021/03/09 11:15:58;;;;;;;;;;;6.40;99.20;;;;;;4947380;29;19933;-69
2021/03/09 11:18:23;;;;;;;;;;;6.40;97.40;;;;;;4945203;28;19926;-69
2021/03/09 11:20:49;;;;;;;;;;;6.50;97.20;;;;;;4607417;28;10000132;-69
2021/03/09 11:23:15;;;;;;;;;;;6.50;97.90;;;;;;4946325;29;19914;-70
2021/03/09 11:25:40;;;;;;;;;;;6.60;96.50;;;;;;4944825;29;19922;-70
2021/03/09 11:28:08;;;;;;;;;;;6.70;95.70;;;;;;4943286;28;19937;-69
2021/03/09 11:30:34;;;;;;;;;;;6.80;95.10;;;;;;4959601;28;19930;-69
2021/03/09 11:32:59;;;;;;;;;;;6.80;94.30;;;;;;4943719;28;19926;-69
2021/03/09 11:35:25;;;;;;;;;;;6.80;92.80;;;;;;4943765;28;19930;-69
2021/03/09 11:37:50;;;;;;;;;;;6.90;91.10;;;;;;4945997;29;20565;-70
2021/03/09 11:40:18;;;;;;;;;;;6.70;88.60;;;;;;4947236;28;20317;-70
2021/03/09 11:42:44;;;;;;;;;;;6.70;92.30;;;;;;4948809;28;20066;-69
2021/03/09 11:45:10;;;;;;;;;;;6.70;92.60;;;;;;4949085;28;20040;-69
2021/03/09 11:47:37;;;;;;;;;;;6.70;92.80;;;;;;4948738;29;19918;-69
2021/03/09 11:50:04;;;;;;;;;;;6.70;92.70;;;;;;4948536;29;19919;-69
2021/03/09 11:52:32;;;;;;;;;;;6.60;94.20;;;;;;4926294;29;19950;-69
2021/03/09 11:54:59;;;;;;;;;;;6.60;94.40;;;;;;4960929;28;19929;-69
2021/03/09 11:57:25;;;;;;;;;;;6.60;95.40;;;;;;4948160;29;20084;-70
2021/03/09 11:59:50;;;;;;;;;;;6.70;96.00;;;;;;4948265;28;20404;-69
2021/03/09 12:02:16;;;;;;;;;;;6.60;96.60;;;;;;4965652;28;19929;-70
2021/03/09 12:04:41;;;;;;;;;;;6.70;95.50;;;;;;4946521;29;19950;-70
2021/03/09 12:07:07;;;;;;;;;;;6.80;95.00;;;;;;4946864;28;19973;-70
2021/03/09 12:09:32;;;;;;;;;;;7.00;94.60;;;;;;4947860;29;20413;-69
2021/03/09 12:11:58;;;;;;;;;;;7.10;93.20;;;;;;4947818;29;20005;-69
2021/03/09 12:14:26;;;;;;;;;;;7.10;93.90;;;;;;4949053;29;19911;-69
2021/03/09 12:16:52;;;;;;;;;;;7.10;91.90;;;;;;4945376;28;19918;-69
2021/03/09 12:19:17;;;;;;;;;;;7.10;92.30;;;;;;4947859;29;20324;-69
2021/03/09 12:21:43;;;;;;;;;;;7.20;92.10;;;;;;4949413;29;20340;-70
2021/03/09 12:24:14;;;;;;;;;;;7.10;88.20;;;;;;4949291;29;19934;-69
2021/03/09 12:26:39;;;;;;;;;;;7.10;89.10;;;;;;4949531;29;19950;-69
2021/03/09 12:29:05;;;;;;;;;;;7.10;91.10;;;;;;4961327;28;19964;-70
2021/03/09 12:31:31;;;;;;;;;;;7.20;91.10;;;;;;4961847;28;19922;-69
2021/03/09 12:33:57;;;;;;;;;;;7.30;91.40;;;;;;4950118;29;19937;-69
2021/03/09 12:36:23;;;;;;;;;;;7.30;87.60;;;;;;4950926;29;20009;-69
2021/03/09 12:38:48;;;;;;;;;;;7.40;87.40;;;;;;4948072;28;20033;-69
2021/03/09 12:41:14;;;;;;;;;;;7.30;86.30;;;;;;4947850;29;19919;-70
2021/03/09 12:43:39;;;;;;;;;;;7.30;85.50;;;;;;4947360;29;19911;-70
2021/03/09 12:46:05;;;;;;;;;;;7.30;87.10;;;;;;4947985;28;19918;-70
2021/03/09 12:48:33;;;;;;;;;;;7.30;87.00;;;;;;4948088;29;19957;-70
2021/03/09 12:51:01;;;;;;;;;;;7.30;86.00;;;;;;4945707;29;19918;-70
2021/03/09 12:53:26;;;;;;;;;;;7.40;87.10;;;;;;4946345;29;19940;-70
2021/03/09 12:55:52;;;;;;;;;;;7.40;86.10;;;;;;4958670;28;20477;-70
2021/03/09 12:58:18;;;;;;;;;;;7.40;85.20;;;;;;4945521;29;19910;-70
2021/03/09 13:00:43;;;;;;;;;;;7.40;86.00;;;;;;4948076;28;19914;-70
2021/03/09 13:03:09;;;;;;;;;;;7.40;85.20;;;;;;4945874;29;19997;-70
2021/03/09 13:05:34;;;;;;;;;;;7.30;83.60;;;;;;4946364;29;19950;-69
2021/03/09 13:08:00;;;;;;;;;;;7.20;85.10;;;;;;4948299;28;20399;-69
2021/03/09 13:10:25;;;;;;;;;;;7.30;86.90;;;;;;4946163;29;19924;-70
2021/03/09 13:12:51;;;;;;;;;;;7.20;87.10;;;;;;4943835;29;19938;-69
2021/03/09 13:15:17;;;;;;;;;;;7.30;88.00;;;;;;4946610;29;19922;-70
2021/03/09 13:17:42;;;;;;;;;;;7.30;85.90;;;;;;4963353;28;19953;-69
2021/03/09 13:20:13;;;;;;;;;;;7.20;86.80;;;;;;4947700;29;19953;-70
2021/03/09 13:22:39;;;;;;;;;;;7.20;87.30;;;;;;4949134;29;19926;-69
2021/03/09 13:25:09;;;;;;;;;;;7.20;88.60;;;;;;4948122;29;19922;-69
2021/03/09 13:27:37;;;;;;;;;;;7.20;88.10;;;;;;4946263;28;19922;-70
2021/03/09 13:30:07;;;;;;;;;;;7.20;88.10;;;;;;4944551;28;19988;-69
2021/03/09 13:32:33;;;;;;;;;;;7.10;86.30;;;;;;4948595;28;19984;-70
2021/03/09 13:34:58;;;;;;;;;;;7.10;86.80;;;;;;4945185;28;19922;-70
2021/03/09 13:37:27;;;;;;;;;;;7.10;86.10;;;;;;4944502;29;20001;-70
2021/03/09 13:39:55;;;;;;;;;;;7.10;87.60;;;;;;4945543;29;19969;-70
2021/03/09 13:42:20;;;;;;;;;;;7.10;85.10;;;;;;4943535;29;20433;-70
2021/03/09 13:44:46;;;;;;;;;;;7.00;84.20;;;;;;4945675;28;20061;-69
2021/03/09 13:47:11;;;;;;;;;;;7.10;86.40;;;;;;4945800;28;21994;-70
2021/03/09 13:49:37;;;;;;;;;;;7.00;84.40;;;;;;4945424;28;19914;-70
2021/03/09 13:52:03;;;;;;;;;;;6.90;85.80;;;;;;4944541;29;19964;-70
2021/03/09 13:54:28;;;;;;;;;;;6.90;86.10;;;;;;4945384;29;19972;-70
2021/03/09 13:56:54;;;;;;;;;;;7.00;87.70;;;;;;4942080;29;19922;-70
2021/03/09 13:59:19;;;;;;;;;;;6.90;87.10;;;;;;4942972;29;19910;-69
2021/03/09 14:01:45;;;;;;;;;;;6.90;88.10;;;;;;4942597;29;19997;-70
2021/03/09 14:04:13;;;;;;;;;;;7.00;86.40;;;;;;4945986;28;19910;-70
2021/03/09 14:06:38;;;;;;;;;;;7.10;88.60;;;;;;4941530;29;19914;-70
2021/03/09 14:09:06;;;;;;;;;;;7.00;86.20;;;;;;4945469;29;19925;-70
2021/03/09 14:11:34;;;;;;;;;;;7.00;88.00;;;;;;4945684;29;19921;-70
2021/03/09 14:13:59;;;;;;;;;;;7.00;87.70;;;;;;4945286;29;20293;-70
2021/03/09 14:16:25;;;;;;;;;;;7.00;86.30;;;;;;4942987;29;19976;-69
2021/03/09 14:18:50;;;;;;;;;;;7.00;86.30;;;;;;4962127;28;19965;-70
2021/03/09 14:21:16;;;;;;;;;;;7.00;85.90;;;;;;4946855;28;19938;-70
2021/03/09 14:23:41;;;;;;;;;;;7.00;87.10;;;;;;4943809;28;19915;-69
2021/03/09 14:26:09;;;;;;;;;;;7.00;87.60;;;;;;4945463;28;19918;-69
2021/03/09 14:28:35;;;;;;;;;;;6.90;86.90;;;;;;4943278;28;19921;-69
2021/03/09 14:31:00;;;;;;;;;;;7.00;87.90;;;;;;4944026;28;19922;-69
2021/03/09 14:33:26;;;;;;;;;;;6.90;86.90;;;;;;4957180;28;19914;-70